sensor_id;sensor_type;location;lat;lon;timestamp;pressure;altitude;pressure_sealevel;temperature;humidity
11621;BME280;5866;49.094;11.900;2023-01-25T00:00:10;97815.56;;;1.67;100.00
11621;BME280;5866;49.094;11.900;2023-01-25T00:02:37;97805.50;;;1.58;100.00
11621;BME280;5866;49.094;11.900;2023-01-25T00:05:05;97803.81;;;1.57;100.00
11621;BME280;5866;49.094;11.900;2023-01-25T00:07:33;97807.59;;;1.50;100.00
11621;BME280;5866;49.094;11.900;2023-01-25T00:10:01;97800.03;;;1.44;100.00
11621;BME280;5866;49.094;11.900;2023-01-25T00:12:28;97805.69;;;1.53;100.00
11621;BME280;5866;49.094;11.900;2023-01-25T00:14:56;97805.50;;;1.58;100.00
11621;BME280;5866;49.094;11.900;2023-01-25T00:17:25;97806.06;;;1.46;100.00
11621;BME280;5866;49.094;11.900;2023-01-25T00:19:52;97801.88;;;1.42;100.00
11621;BME280;5866;49.094;11.900;2023-01-25T00:22:20;97798.28;;;1.44;100.00
11621;BME280;5866;49.094;11.900;2023-01-25T00:24:47;97795.25;;;1.91;100.00
11621;BME280;5866;49.094;11.900;2023-01-25T00:27:15;97794.56;;;1.87;100.00
11621;BME280;5866;49.094;11.900;2023-01-25T00:29:42;97798.22;;;1.83;100.00
11621;BME280;5866;49.094;11.900;2023-01-25T00:32:36;97804.50;;;1.60;100.00
11621;BME280;5866;49.094;11.900;2023-01-25T00:35:10;97792.16;;;1.83;100.00
11621;BME280;5866;49.094;11.900;2023-01-25T00:37:41;97783.22;;;1.68;100.00
11621;BME280;5866;49.094;11.900;2023-01-25T00:40:10;97790.25;;;1.68;100.00
11621;BME280;5866;49.094;11.900;2023-01-25T00:42:38;97787.19;;;1.58;100.00
11621;BME280;5866;49.094;11.900;2023-01-25T00:45:08;97789.53;;;1.64;100.00
11621;BME280;5866;49.094;11.900;2023-01-25T00:47:38;97786.91;;;2.01;100.00
11621;BME280;5866;49.094;11.900;2023-01-25T00:50:06;97778.34;;;2.16;100.00
11621;BME280;5866;49.094;11.900;2023-01-25T00:52:34;97773.72;;;1.67;100.00
11621;BME280;5866;49.094;11.900;2023-01-25T00:55:02;97774.56;;;1.68;100.00
11621;BME280;5866;49.094;11.900;2023-01-25T00:57:30;97774.59;;;2.22;100.00
11621;BME280;5866;49.094;11.900;2023-01-25T00:59:58;97773.13;;;1.42;100.00
11621;BME280;5866;49.094;11.900;2023-01-25T01:02:25;97775.59;;;1.45;100.00
11621;BME280;5866;49.094;11.900;2023-01-25T01:04:54;97775.06;;;1.37;100.00
11621;BME280;5866;49.094;11.900;2023-01-25T01:07:22;97780.78;;;1.26;100.00
11621;BME280;5866;49.094;11.900;2023-01-25T01:09:49;97787.06;;;1.42;100.00
11621;BME280;5866;49.094;11.900;2023-01-25T01:12:17;97788.72;;;1.43;100.00
11621;BME280;5866;49.094;11.900;2023-01-25T01:14:44;97780.59;;;1.31;100.00
11621;BME280;5866;49.094;11.900;2023-01-25T01:17:12;97778.38;;;1.22;100.00
11621;BME280;5866;49.094;11.900;2023-01-25T01:19:39;97783.59;;;1.22;100.00
11621;BME280;5866;49.094;11.900;2023-01-25T01:22:08;97779.72;;;1.30;100.00
11621;BME280;5866;49.094;11.900;2023-01-25T01:24:36;97783.47;;;1.25;100.00
11621;BME280;5866;49.094;11.900;2023-01-25T01:27:03;97785.09;;;1.27;100.00
11621;BME280;5866;49.094;11.900;2023-01-25T01:29:31;97793.84;;;1.26;100.00
11621;BME280;5866;49.094;11.900;2023-01-25T01:31:58;97791.50;;;1.20;100.00
11621;BME280;5866;49.094;11.900;2023-01-25T01:34:26;97798.13;;;1.09;100.00
11621;BME280;5866;49.094;11.900;2023-01-25T01:36:54;97795.25;;;1.15;100.00
11621;BME280;5866;49.094;11.900;2023-01-25T01:39:23;97790.13;;;1.12;100.00
11621;BME280;5866;49.094;11.900;2023-01-25T01:41:50;97804.25;;;0.88;100.00
11621;BME280;5866;49.094;11.900;2023-01-25T01:44:20;97795.88;;;1.20;100.00
11621;BME280;5866;49.094;11.900;2023-01-25T01:46:51;97794.97;;;1.01;100.00
11621;BME280;5866;49.094;11.900;2023-01-25T01:49:23;97800.59;;;1.12;100.00
11621;BME280;5866;49.094;11.900;2023-01-25T01:51:55;97791.38;;;1.03;100.00
11621;BME280;5866;49.094;11.900;2023-01-25T01:54:29;97795.50;;;1.09;100.00
11621;BME280;5866;49.094;11.900;2023-01-25T01:57:00;97790.91;;;1.14;100.00
11621;BME280;5866;49.094;11.900;2023-01-25T01:59:34;97792.00;;;1.28;100.00
11621;BME280;5866;49.094;11.900;2023-01-25T02:02:03;97792.69;;;1.33;100.00
11621;BME280;5866;49.094;11.900;2023-01-25T02:04:31;97784.75;;;1.35;100.00
11621;BME280;5866;49.094;11.900;2023-01-25T02:07:02;97786.50;;;1.54;100.00
11621;BME280;5866;49.094;11.900;2023-01-25T02:09:34;97785.03;;;1.29;100.00
11621;BME280;5866;49.094;11.900;2023-01-25T02:12:03;97791.47;;;1.02;100.00
11621;BME280;5866;49.094;11.900;2023-01-25T02:14:32;97788.44;;;1.31;100.00
11621;BME280;5866;49.094;11.900;2023-01-25T02:17:02;97789.31;;;1.50;100.00
11621;BME280;5866;49.094;11.900;2023-01-25T02:19:37;97781.28;;;1.73;100.00
11621;BME280;5866;49.094;11.900;2023-01-25T02:22:12;97781.28;;;1.73;100.00
11621;BME280;5866;49.094;11.900;2023-01-25T02:27:22;97780.63;;;1.87;100.00
11621;BME280;5866;49.094;11.900;2023-01-25T02:29:50;97777.88;;;1.71;100.00
11621;BME280;5866;49.094;11.900;2023-01-25T02:32:18;97778.72;;;1.72;100.00
11621;BME280;5866;49.094;11.900;2023-01-25T02:34:45;97786.53;;;1.53;100.00
11621;BME280;5866;49.094;11.900;2023-01-25T02:37:13;97783.31;;;1.67;100.00
11621;BME280;5866;49.094;11.900;2023-01-25T02:39:41;97780.84;;;1.82;100.00
11621;BME280;5866;49.094;11.900;2023-01-25T02:42:09;97784.81;;;2.09;100.00
11621;BME280;5866;49.094;11.900;2023-01-25T02:44:37;97779.28;;;1.78;100.00
11621;BME280;5866;49.094;11.900;2023-01-25T02:47:05;97772.47;;;1.37;100.00
11621;BME280;5866;49.094;11.900;2023-01-25T02:49:34;97780.81;;;1.45;100.00
11621;BME280;5866;49.094;11.900;2023-01-25T02:52:02;97770.72;;;1.56;100.00
11621;BME280;5866;49.094;11.900;2023-01-25T02:54:30;97779.28;;;1.59;100.00
11621;BME280;5866;49.094;11.900;2023-01-25T02:56:57;97781.88;;;1.41;100.00
11621;BME280;5866;49.094;11.900;2023-01-25T02:59:25;97773.34;;;1.56;100.00
11621;BME280;5866;49.094;11.900;2023-01-25T03:01:54;97777.88;;;1.71;100.00
11621;BME280;5866;49.094;11.900;2023-01-25T03:04:22;97784.09;;;1.87;100.00
11621;BME280;5866;49.094;11.900;2023-01-25T03:06:49;97782.66;;;1.80;100.00
11621;BME280;5866;49.094;11.900;2023-01-25T03:09:17;97770.84;;;1.53;100.00
11621;BME280;5866;49.094;11.900;2023-01-25T03:11:44;97771.84;;;1.32;100.00
11621;BME280;5866;49.094;11.900;2023-01-25T03:14:12;97773.91;;;1.24;100.00
11621;BME280;5866;49.094;11.900;2023-01-25T03:16:39;97777.41;;;1.43;100.00
11621;BME280;5866;49.094;11.900;2023-01-25T03:19:08;97774.31;;;1.53;100.00
11621;BME280;5866;49.094;11.900;2023-01-25T03:21:36;97765.94;;;1.27;100.00
11621;BME280;5866;49.094;11.900;2023-01-25T03:24:04;97768.59;;;1.07;100.00
11621;BME280;5866;49.094;11.900;2023-01-25T03:26:31;97758.16;;;1.07;100.00
11621;BME280;5866;49.094;11.900;2023-01-25T03:29:19;97749.31;;;1.09;100.00
11621;BME280;5866;49.094;11.900;2023-01-25T03:31:47;97759.06;;;0.86;100.00
11621;BME280;5866;49.094;11.900;2023-01-25T03:34:16;97765.00;;;0.89;100.00
11621;BME280;5866;49.094;11.900;2023-01-25T03:36:43;97758.63;;;0.96;100.00
11621;BME280;5866;49.094;11.900;2023-01-25T03:39:11;97748.47;;;0.89;100.00
11621;BME280;5866;49.094;11.900;2023-01-25T03:41:38;97749.53;;;1.05;100.00
11621;BME280;5866;49.094;11.900;2023-01-25T03:44:07;97750.94;;;1.12;100.00
11621;BME280;5866;49.094;11.900;2023-01-25T03:46:36;97745.16;;;1.24;100.00
11621;BME280;5866;49.094;11.900;2023-01-25T03:49:04;97743.41;;;0.86;100.00
11621;BME280;5866;49.094;11.900;2023-01-25T03:51:33;97754.13;;;0.79;100.00
11621;BME280;5866;49.094;11.900;2023-01-25T03:54:01;97751.56;;;0.78;100.00
11621;BME280;5866;49.094;11.900;2023-01-25T03:56:28;97747.97;;;0.60;100.00
11621;BME280;5866;49.094;11.900;2023-01-25T03:58:56;97752.41;;;0.58;100.00
11621;BME280;5866;49.094;11.900;2023-01-25T04:01:23;97753.06;;;0.63;100.00
11621;BME280;5866;49.094;11.900;2023-01-25T04:03:51;97748.63;;;0.65;100.00
11621;BME280;5866;49.094;11.900;2023-01-25T04:06:18;97740.91;;;0.82;100.00
11621;BME280;5866;49.094;11.900;2023-01-25T04:08:47;97748.63;;;0.65;100.00
11621;BME280;5866;49.094;11.900;2023-01-25T04:11:15;97737.38;;;0.63;100.00
11621;BME280;5866;49.094;11.900;2023-01-25T04:13:42;97737.78;;;0.54;100.00
11621;BME280;5866;49.094;11.900;2023-01-25T04:16:10;97730.28;;;0.87;100.00
11621;BME280;5866;49.094;11.900;2023-01-25T04:18:38;97726.06;;;1.03;100.00
11621;BME280;5866;49.094;11.900;2023-01-25T04:21:06;97729.41;;;0.87;100.00
11621;BME280;5866;49.094;11.900;2023-01-25T04:23:33;97727.75;;;0.86;100.00
11621;BME280;5866;49.094;11.900;2023-01-25T04:26:07;97720.81;;;0.85;100.00
11621;BME280;5866;49.094;11.900;2023-01-25T04:28:35;97719.59;;;1.12;100.00
11621;BME280;5866;49.094;11.900;2023-01-25T04:31:03;97709.53;;;1.03;100.00
11621;BME280;5866;49.094;11.900;2023-01-25T04:33:31;97707.97;;;0.99;100.00
11621;BME280;5866;49.094;11.900;2023-01-25T04:35:59;97696.56;;;1.01;100.00
11621;BME280;5866;49.094;11.900;2023-01-25T04:38:27;97695.00;;;0.97;100.00
11621;BME280;5866;49.094;11.900;2023-01-25T04:40:54;97690.22;;;1.07;100.00
11621;BME280;5866;49.094;11.900;2023-01-25T04:43:23;97688.09;;;1.15;100.00
11621;BME280;5866;49.094;11.900;2023-01-25T04:45:51;97684.72;;;1.13;100.00
11621;BME280;5866;49.094;11.900;2023-01-25T04:48:19;97682.59;;;1.02;100.00
11621;BME280;5866;49.094;11.900;2023-01-25T04:50:46;97685.94;;;0.86;100.00
11621;BME280;5866;49.094;11.900;2023-01-25T04:53:14;97683.41;;;0.64;100.00
11621;BME280;5866;49.094;11.900;2023-01-25T04:55:46;97675.06;;;0.95;100.00
11621;BME280;5866;49.094;11.900;2023-01-25T04:58:14;97677.63;;;0.96;100.00
11621;BME280;5866;49.094;11.900;2023-01-25T05:00:43;97675.16;;;1.12;100.00
11621;BME280;5866;49.094;11.900;2023-01-25T05:03:10;97676.22;;;1.26;100.00
11621;BME280;5866;49.094;11.900;2023-01-25T05:05:38;97678.00;;;1.26;100.00
11621;BME280;5866;49.094;11.900;2023-01-25T05:08:05;97670.72;;;1.14;100.00
11621;BME280;5866;49.094;11.900;2023-01-25T05:10:33;97672.44;;;1.52;100.00
11621;BME280;5866;49.094;11.900;2023-01-25T05:13:00;97672.28;;;1.18;100.00
11621;BME280;5866;49.094;11.900;2023-01-25T05:15:28;97674.28;;;1.13;100.00
11621;BME280;5866;49.094;11.900;2023-01-25T05:17:57;97673.06;;;1.20;100.00
11621;BME280;5866;49.094;11.900;2023-01-25T05:20:25;97662.66;;;1.37;100.00
11621;BME280;5866;49.094;11.900;2023-01-25T05:22:52;97661.03;;;1.53;100.00
11621;BME280;5866;49.094;11.900;2023-01-25T05:25:20;97659.44;;;1.50;100.00
11621;BME280;5866;49.094;11.900;2023-01-25T05:28:05;97654.25;;;1.49;100.00
11621;BME280;5866;49.094;11.900;2023-01-25T05:30:33;97657.72;;;1.31;100.00
11621;BME280;5866;49.094;11.900;2023-01-25T05:33:02;97657.84;;;1.65;100.00
11621;BME280;5866;49.094;11.900;2023-01-25T05:35:29;97651.78;;;1.65;100.00
11621;BME280;5866;49.094;11.900;2023-01-25T05:37:57;97653.78;;;2.12;100.00
11621;BME280;5866;49.094;11.900;2023-01-25T05:40:25;97641.59;;;2.46;100.00
11621;BME280;5866;49.094;11.900;2023-01-25T05:42:54;97644.84;;;2.16;100.00
11621;BME280;5866;49.094;11.900;2023-01-25T05:45:21;97651.97;;;1.96;100.00
11621;BME280;5866;49.094;11.900;2023-01-25T05:47:52;97655.19;;;2.19;100.00
11621;BME280;5866;49.094;11.900;2023-01-25T05:50:23;97648.53;;;2.12;100.00
11621;BME280;5866;49.094;11.900;2023-01-25T05:52:51;97644.41;;;2.25;100.00
11621;BME280;5866;49.094;11.900;2023-01-25T05:55:18;97653.16;;;2.07;100.00
11621;BME280;5866;49.094;11.900;2023-01-25T05:57:46;97652.13;;;1.93;100.00
11621;BME280;5866;49.094;11.900;2023-01-25T06:00:13;97648.25;;;2.53;100.00
11621;BME280;5866;49.094;11.900;2023-01-25T06:02:41;97625.03;;;2.95;100.00
11621;BME280;5866;49.094;11.900;2023-01-25T06:05:09;97641.00;;;2.23;100.00
11621;BME280;5866;49.094;11.900;2023-01-25T06:07:38;97644.47;;;2.07;100.00
11621;BME280;5866;49.094;11.900;2023-01-25T06:10:07;97636.72;;;1.87;100.00
11621;BME280;5866;49.094;11.900;2023-01-25T06:12:35;97639.91;;;2.10;100.00
11621;BME280;5866;49.094;11.900;2023-01-25T06:15:02;97640.63;;;1.78;100.00
11621;BME280;5866;49.094;11.900;2023-01-25T06:17:30;97640.25;;;2.38;100.00
11621;BME280;5866;49.094;11.900;2023-01-25T06:19:58;97646.66;;;1.97;100.00
11621;BME280;5866;49.094;11.900;2023-01-25T06:22:25;97645.69;;;1.64;100.00
11621;BME280;5866;49.094;11.900;2023-01-25T06:24:54;97641.66;;;1.76;100.00
11621;BME280;5866;49.094;11.900;2023-01-25T06:27:21;97646.56;;;1.46;100.00
11621;BME280;5866;49.094;11.900;2023-01-25T06:29:49;97646.63;;;1.07;100.00
11621;BME280;5866;49.094;11.900;2023-01-25T06:32:16;97639.78;;;1.42;100.00
11621;BME280;5866;49.094;11.900;2023-01-25T06:34:44;97642.91;;;1.86;100.00
11621;BME280;5866;49.094;11.900;2023-01-25T06:37:12;97651.88;;;1.80;100.00
11621;BME280;5866;49.094;11.900;2023-01-25T06:39:40;97647.19;;;1.70;100.00
11621;BME280;5866;49.094;11.900;2023-01-25T06:42:09;97644.31;;;1.74;100.00
11621;BME280;5866;49.094;11.900;2023-01-25T06:44:36;97650.66;;;1.33;100.00
11621;BME280;5866;49.094;11.900;2023-01-25T06:47:04;97653.56;;;1.45;100.00
11621;BME280;5866;49.094;11.900;2023-01-25T06:49:31;97647.28;;;1.31;100.00
11621;BME280;5866;49.094;11.900;2023-01-25T06:51:59;97643.75;;;1.50;100.00
11621;BME280;5866;49.094;11.900;2023-01-25T06:54:27;97643.75;;;1.32;100.00
11621;BME280;5866;49.094;11.900;2023-01-25T06:56:54;97640.91;;;1.18;100.00
11621;BME280;5866;49.094;11.900;2023-01-25T06:59:23;97634.34;;;1.46;100.00
11621;BME280;5866;49.094;11.900;2023-01-25T07:01:51;97636.59;;;1.54;100.00
11621;BME280;5866;49.094;11.900;2023-01-25T07:04:18;97629.66;;;1.53;100.00
11621;BME280;5866;49.094;11.900;2023-01-25T07:06:46;97640.75;;;1.58;100.00
11621;BME280;5866;49.094;11.900;2023-01-25T07:09:13;97644.44;;;1.54;100.00
11621;BME280;5866;49.094;11.900;2023-01-25T07:11:41;97643.25;;;1.78;100.00
11621;BME280;5866;49.094;11.900;2023-01-25T07:14:08;97638.91;;;2.13;100.00
11621;BME280;5866;49.094;11.900;2023-01-25T07:16:37;97630.00;;;2.17;100.00
11621;BME280;5866;49.094;11.900;2023-01-25T07:19:06;97630.53;;;2.58;100.00
11621;BME280;5866;49.094;11.900;2023-01-25T07:21:34;97628.66;;;2.60;100.00
11621;BME280;5866;49.094;11.900;2023-01-25T07:24:03;97631.63;;;2.36;100.00
11621;BME280;5866;49.094;11.900;2023-01-25T07:26:31;97633.38;;;2.36;100.00
11621;BME280;5866;49.094;11.900;2023-01-25T07:28:59;97632.94;;;1.75;100.00
11621;BME280;5866;49.094;11.900;2023-01-25T07:31:27;97630.19;;;1.95;100.00
11621;BME280;5866;49.094;11.900;2023-01-25T07:33:57;97629.44;;;2.10;100.00
11621;BME280;5866;49.094;11.900;2023-01-25T07:36:25;97619.41;;;2.70;100.00
11621;BME280;5866;49.094;11.900;2023-01-25T07:38:53;97613.06;;;2.74;100.00
11621;BME280;5866;49.094;11.900;2023-01-25T07:41:21;97619.44;;;2.35;100.00
11621;BME280;5866;49.094;11.900;2023-01-25T07:43:50;97618.22;;;2.25;100.00
11621;BME280;5866;49.094;11.900;2023-01-25T07:46:17;97620.38;;;2.17;100.00
11621;BME280;5866;49.094;11.900;2023-01-25T07:48:46;97618.88;;;2.46;100.00
11621;BME280;5866;49.094;11.900;2023-01-25T07:51:17;97618.34;;;2.57;100.00
11621;BME280;5866;49.094;11.900;2023-01-25T07:53:53;97623.22;;;2.30;100.00
11621;BME280;5866;49.094;11.900;2023-01-25T07:56:23;97627.44;;;2.50;100.00
11621;BME280;5866;49.094;11.900;2023-01-25T07:58:51;97628.50;;;2.63;100.00
11621;BME280;5866;49.094;11.900;2023-01-25T08:01:20;97630.13;;;2.14;100.00
11621;BME280;5866;49.094;11.900;2023-01-25T08:03:48;97622.94;;;2.69;100.00
11621;BME280;5866;49.094;11.900;2023-01-25T08:06:22;97615.09;;;3.17;100.00
11621;BME280;5866;49.094;11.900;2023-01-25T08:08:52;97613.03;;;2.91;100.00
11621;BME280;5866;49.094;11.900;2023-01-25T08:11:22;97622.53;;;3.40;100.00
11621;BME280;5866;49.094;11.900;2023-01-25T08:13:50;97617.31;;;3.40;100.00
11621;BME280;5866;49.094;11.900;2023-01-25T08:16:20;97624.22;;;3.26;100.00
11621;BME280;5866;49.094;11.900;2023-01-25T08:18:48;97616.53;;;3.07;100.00
11621;BME280;5866;49.094;11.900;2023-01-25T08:21:17;97616.56;;;2.90;100.00
11621;BME280;5866;49.094;11.900;2023-01-25T08:23:45;97615.41;;;2.63;100.00
11621;BME280;5866;49.094;11.900;2023-01-25T08:26:14;97617.13;;;2.47;100.00
11621;BME280;5866;49.094;11.900;2023-01-25T08:28:43;97612.56;;;2.83;100.00
11621;BME280;5866;49.094;11.900;2023-01-25T08:31:12;97609.47;;;2.92;100.00
11621;BME280;5866;49.094;11.900;2023-01-25T08:33:41;97607.06;;;2.72;100.00
11621;BME280;5866;49.094;11.900;2023-01-25T08:36:12;97610.47;;;2.57;100.00
11621;BME280;5866;49.094;11.900;2023-01-25T08:38:41;97617.72;;;2.52;100.00
11621;BME280;5866;49.094;11.900;2023-01-25T08:41:10;97617.03;;;2.31;100.00
11621;BME280;5866;49.094;11.900;2023-01-25T08:43:38;97621.91;;;2.21;100.00
11621;BME280;5866;49.094;11.900;2023-01-25T08:46:05;97617.75;;;2.17;100.00
11621;BME280;5866;49.094;11.900;2023-01-25T08:48:33;97622.06;;;2.18;100.00
11621;BME280;5866;49.094;11.900;2023-01-25T08:51:01;97612.28;;;3.04;100.00
11621;BME280;5866;49.094;11.900;2023-01-25T08:53:30;97612.41;;;3.34;100.00
11621;BME280;5866;49.094;11.900;2023-01-25T08:56:03;97608.59;;;2.76;100.00
11621;BME280;5866;49.094;11.900;2023-01-25T08:58:31;97605.09;;;2.92;100.00
11621;BME280;5866;49.094;11.900;2023-01-25T09:01:03;97610.72;;;2.52;100.00
11621;BME280;5866;49.094;11.900;2023-01-25T09:03:33;97610.09;;;3.12;100.00
11621;BME280;5866;49.094;11.900;2023-01-25T09:06:01;97607.28;;;3.00;100.00
11621;BME280;5866;49.094;11.900;2023-01-25T09:08:29;97603.69;;;2.70;100.00
11621;BME280;5866;49.094;11.900;2023-01-25T09:11:00;97605.78;;;2.46;100.00
11621;BME280;5866;49.094;11.900;2023-01-25T09:13:29;97600.56;;;2.46;100.00
11621;BME280;5866;49.094;11.900;2023-01-25T09:15:58;97600.81;;;2.24;100.00
11621;BME280;5866;49.094;11.900;2023-01-25T09:18:26;97593.13;;;2.04;100.00
11621;BME280;5866;49.094;11.900;2023-01-25T09:20:53;97596.41;;;1.91;100.00
11621;BME280;5866;49.094;11.900;2023-01-25T09:23:22;97592.78;;;1.76;100.00
11621;BME280;5866;49.094;11.900;2023-01-25T09:25:55;97594.31;;;1.80;100.00
11621;BME280;5866;49.094;11.900;2023-01-25T09:28:23;97595.44;;;2.10;100.00
11621;BME280;5866;49.094;11.900;2023-01-25T09:30:56;97588.19;;;2.15;100.00
11621;BME280;5866;49.094;11.900;2023-01-25T09:33:44;97594.13;;;2.19;100.00
11621;BME280;5866;49.094;11.900;2023-01-25T09:36:12;97600.81;;;1.90;100.00
11621;BME280;5866;49.094;11.900;2023-01-25T09:38:41;97594.28;;;1.82;100.00
11621;BME280;5866;49.094;11.900;2023-01-25T09:41:17;97592.56;;;1.98;100.00
11621;BME280;5866;49.094;11.900;2023-01-25T09:44:01;97597.88;;;1.79;100.00
11621;BME280;5866;49.094;11.900;2023-01-25T09:46:43;97593.50;;;1.80;100.00
11621;BME280;5866;49.094;11.900;2023-01-25T09:49:34;97588.63;;;1.72;100.00
11621;BME280;5866;49.094;11.900;2023-01-25T09:52:16;97592.34;;;1.85;100.00
11621;BME280;5866;49.094;11.900;2023-01-25T09:54:46;97582.63;;;2.38;100.00
11621;BME280;5866;49.094;11.900;2023-01-25T09:57:17;97570.16;;;2.76;100.00
11621;BME280;5866;49.094;11.900;2023-01-25T09:59:47;97578.00;;;2.26;100.00
11621;BME280;5866;49.094;11.900;2023-01-25T10:02:31;97570.56;;;2.02;100.00
11621;BME280;5866;49.094;11.900;2023-01-25T10:05:06;97570.03;;;2.12;100.00
11621;BME280;5866;49.094;11.900;2023-01-25T10:07:44;97569.34;;;1.92;100.00
11621;BME280;5866;49.094;11.900;2023-01-25T10:10:18;97573.13;;;1.86;100.00
11621;BME280;5866;49.094;11.900;2023-01-25T10:12:46;97560.72;;;1.73;100.00
11621;BME280;5866;49.094;11.900;2023-01-25T10:15:18;97570.19;;;1.75;100.00
11621;BME280;5866;49.094;11.900;2023-01-25T10:17:53;97567.25;;;1.81;100.00
11621;BME280;5866;49.094;11.900;2023-01-25T10:20:28;97557.69;;;1.80;100.00
11621;BME280;5866;49.094;11.900;2023-01-25T10:23:11;97557.81;;;1.43;100.00
11621;BME280;5866;49.094;11.900;2023-01-25T10:25:45;97562.28;;;1.41;100.00
11621;BME280;5866;49.094;11.900;2023-01-25T10:28:26;97556.63;;;1.67;100.00
11621;BME280;5866;49.094;11.900;2023-01-25T10:30:59;97555.78;;;1.67;100.00
11621;BME280;5866;49.094;11.900;2023-01-25T10:33:32;97546.53;;;1.42;100.00
11621;BME280;5866;49.094;11.900;2023-01-25T10:36:05;97538.34;;;1.31;100.00
11621;BME280;5866;49.094;11.900;2023-01-25T10:38:35;97539.25;;;1.66;100.00
11621;BME280;5866;49.094;11.900;2023-01-25T10:41:12;97524.09;;;1.90;100.00
11621;BME280;5866;49.094;11.900;2023-01-25T10:43:43;97524.88;;;1.92;100.00
11621;BME280;5866;49.094;11.900;2023-01-25T10:46:19;97518.78;;;1.91;100.00
11621;BME280;5866;49.094;11.900;2023-01-25T10:48:49;97506.63;;;2.56;100.00
11621;BME280;5866;49.094;11.900;2023-01-25T10:51:28;97502.63;;;2.97;100.00
11621;BME280;5866;49.094;11.900;2023-01-25T10:54:01;97500.44;;;2.74;100.00
11621;BME280;5866;49.094;11.900;2023-01-25T10:56:29;97498.13;;;2.19;100.00
11621;BME280;5866;49.094;11.900;2023-01-25T10:59:13;97500.44;;;2.41;100.00
11621;BME280;5866;49.094;11.900;2023-01-25T11:01:41;97488.31;;;2.07;100.00
11621;BME280;5866;49.094;11.900;2023-01-25T11:04:28;97484.28;;;2.17;100.00
11621;BME280;5866;49.094;11.900;2023-01-25T11:06:56;97479.53;;;2.57;100.00
11621;BME280;5866;49.094;11.900;2023-01-25T11:09:33;97479.50;;;2.08;100.00
11621;BME280;5866;49.094;11.900;2023-01-25T11:12:02;97476.69;;;2.28;100.00
11621;BME280;5866;49.094;11.900;2023-01-25T11:14:32;97470.84;;;3.03;100.00
11621;BME280;5866;49.094;11.900;2023-01-25T11:17:02;97472.03;;;2.82;100.00
11621;BME280;5866;49.094;11.900;2023-01-25T11:19:34;97467.97;;;2.92;100.00
11621;BME280;5866;49.094;11.900;2023-01-25T11:22:08;97463.31;;;2.97;100.00
11621;BME280;5866;49.094;11.900;2023-01-25T11:24:46;97449.31;;;3.28;100.00
11621;BME280;5866;49.094;11.900;2023-01-25T11:27:17;97442.44;;;3.70;100.00
11621;BME280;5866;49.094;11.900;2023-01-25T11:30:05;97445.06;;;3.41;100.00
11621;BME280;5866;49.094;11.900;2023-01-25T11:32:36;97449.34;;;2.50;100.00
11621;BME280;5866;49.094;11.900;2023-01-25T11:35:11;97444.34;;;3.23;100.00
11621;BME280;5866;49.094;11.900;2023-01-25T11:37:50;97434.72;;;3.53;100.00
11621;BME280;5866;49.094;11.900;2023-01-25T11:40:30;97437.28;;;3.39;100.00
11621;BME280;5866;49.094;11.900;2023-01-25T11:43:10;97416.78;;;3.46;100.00
11621;BME280;5866;49.094;11.900;2023-01-25T11:49:08;97421.31;;;3.28;100.00
11621;BME280;5866;49.094;11.900;2023-01-25T11:51:43;97425.78;;;1.86;100.00
11621;BME280;5866;49.094;11.900;2023-01-25T11:54:40;97414.94;;;2.09;100.00
11621;BME280;5866;49.094;11.900;2023-01-25T11:57:23;97418.09;;;2.15;100.00
11621;BME280;5866;49.094;11.900;2023-01-25T12:00:16;97410.94;;;2.50;100.00
11621;BME280;5866;49.094;11.900;2023-01-25T12:02:59;97410.13;;;2.17;100.00
11621;BME280;5866;49.094;11.900;2023-01-25T12:05:47;97397.28;;;2.12;100.00
11621;BME280;5866;49.094;11.900;2023-01-25T12:08:46;97402.03;;;1.22;100.00
11621;BME280;5866;49.094;11.900;2023-01-25T12:11:30;97392.06;;;1.13;100.00
11621;BME280;5866;49.094;11.900;2023-01-25T12:14:07;97388.13;;;1.38;100.00
11621;BME280;5866;49.094;11.900;2023-01-25T12:16:47;97380.97;;;1.59;100.00
11621;BME280;5866;49.094;11.900;2023-01-25T12:19:36;97378.19;;;1.62;100.00
11621;BME280;5866;49.094;11.900;2023-01-25T12:22:15;97370.91;;;1.34;100.00
11621;BME280;5866;49.094;11.900;2023-01-25T12:24:53;97371.13;;;1.47;100.00
11621;BME280;5866;49.094;11.900;2023-01-25T12:27:34;97362.69;;;2.07;100.00
11621;BME280;5866;49.094;11.900;2023-01-25T12:30:13;97349.84;;;2.18;100.00
11621;BME280;5866;49.094;11.900;2023-01-25T12:32:46;97352.72;;;2.14;100.00
11621;BME280;5866;49.094;11.900;2023-01-25T12:35:24;97346.63;;;1.82;100.00
11621;BME280;5866;49.094;11.900;2023-01-25T12:37:59;97335.50;;;2.25;100.00
11621;BME280;5866;49.094;11.900;2023-01-25T12:40:38;97330.34;;;2.55;100.00
11621;BME280;5866;49.094;11.900;2023-01-25T12:43:10;97338.88;;;2.27;100.00
11621;BME280;5866;49.094;11.900;2023-01-25T12:45:43;97326.63;;;2.59;100.00
11621;BME280;5866;49.094;11.900;2023-01-25T12:48:16;97324.50;;;2.66;100.00
11621;BME280;5866;49.094;11.900;2023-01-25T12:50:50;97317.63;;;3.08;100.00
11621;BME280;5866;49.094;11.900;2023-01-25T12:53:20;97309.84;;;2.16;100.00
11621;BME280;5866;49.094;11.900;2023-01-25T12:55:51;97308.06;;;2.78;100.00
11621;BME280;5866;49.094;11.900;2023-01-25T12:58:25;97304.41;;;2.35;100.00
11621;BME280;5866;49.094;11.900;2023-01-25T13:01:10;97312.63;;;1.98;100.00
11621;BME280;5866;49.094;11.900;2023-01-25T13:03:50;97287.69;;;2.37;100.00
11621;BME280;5866;49.094;11.900;2023-01-25T13:06:35;97288.75;;;2.19;100.00
11621;BME280;5866;49.094;11.900;2023-01-25T13:09:12;97284.41;;;2.34;100.00
11621;BME280;5866;49.094;11.900;2023-01-25T13:11:44;97293.28;;;2.00;100.00
11621;BME280;5866;49.094;11.900;2023-01-25T13:14:27;97273.03;;;2.65;100.00
11621;BME280;5866;49.094;11.900;2023-01-25T13:17:10;97282.88;;;2.91;100.00
11621;BME280;5866;49.094;11.900;2023-01-25T13:19:40;97269.97;;;2.27;100.00
11621;BME280;5866;49.094;11.900;2023-01-25T13:22:09;97275.06;;;1.35;100.00
11621;BME280;5866;49.094;11.900;2023-01-25T13:25:18;97263.81;;;1.50;100.00